Time;durP1;ratioP1;P1;durP2;ratioP2;P2;SDS_P1;SDS_P2;PMS_P1;PMS_P2;Temp;Humidity;BMP_temperature;BMP_pressure;BME280_temperature;BME280_humidity;BME280_pressure;Samples;Min_cycle;Max_cycle;Signal;HPM_P1;HPM_P2
2022/02/13 00:01:25;;;;;;;7.40;4.78;;;2.40;99.90;;;;;;5054187;28;20389;-61
2022/02/13 00:03:51;;;;;;;9.75;3.92;;;2.50;99.90;;;;;;5044785;28;20044;-56
2022/02/13 00:06:17;;;;;;;9.30;6.47;;;2.50;99.90;;;;;;5058619;28;20040;-58
2022/02/13 00:08:42;;;;;;;11.05;5.78;;;2.60;99.90;;;;;;5056222;28;20029;-56
2022/02/13 00:11:08;;;;;;;7.03;3.70;;;2.70;99.90;;;;;;5048937;28;20116;-59
2022/02/13 00:13:33;;;;;;;7.15;3.88;;;2.80;99.90;;;;;;5055863;28;20072;-58
2022/02/13 00:15:59;;;;;;;10.98;5.72;;;2.80;99.90;;;;;;5048579;28;20028;-59
2022/02/13 00:18:24;;;;;;;3.33;2.50;;;2.80;99.90;;;;;;5052427;28;20480;-58
2022/02/13 00:20:50;;;;;;;7.50;4.30;;;2.80;99.90;;;;;;5056124;28;20331;-57
2022/02/13 00:23:15;;;;;;;8.35;5.03;;;2.90;99.90;;;;;;5049485;28;20078;-56
2022/02/13 00:25:43;;;;;;;11.57;5.40;;;3.00;99.90;;;;;;5053872;28;20029;-59
2022/02/13 00:28:11;;;;;;;11.15;4.60;;;3.00;99.90;;;;;;5050746;28;20043;-58
2022/02/13 00:30:36;;;;;;;8.55;3.53;;;3.00;99.90;;;;;;5052622;28;20024;-58
2022/02/13 00:33:02;;;;;;;7.82;4.85;;;3.00;99.90;;;;;;5058900;28;20024;-58
2022/02/13 00:35:27;;;;;;;8.48;5.05;;;3.00;99.90;;;;;;5053617;28;20037;-60
2022/02/13 00:37:53;;;;;;;9.45;2.92;;;3.00;99.90;;;;;;5049741;28;20036;-56
2022/02/13 00:40:20;;;;;;;6.32;4.00;;;3.00;99.90;;;;;;5047281;28;20070;-55
2022/02/13 00:42:46;;;;;;;8.07;4.03;;;3.00;99.90;;;;;;5050407;28;20087;-61
2022/02/13 00:45:12;;;;;;;9.30;3.97;;;3.10;99.90;;;;;;5053184;28;20028;-58
2022/02/13 00:47:38;;;;;;;9.23;4.28;;;3.10;99.90;;;;;;5050437;28;20044;-52
2022/02/13 00:50:04;;;;;;;8.85;5.57;;;3.10;99.90;;;;;;5045528;28;20028;-57
2022/02/13 00:52:32;;;;;;;7.82;3.97;;;3.10;99.90;;;;;;5052872;28;20040;-55
2022/02/13 00:54:58;;;;;;;11.30;3.75;;;3.10;99.90;;;;;;5059345;28;20119;-56
2022/02/13 00:57:23;;;;;;;13.82;6.03;;;3.10;99.90;;;;;;5055917;28;20521;-57
2022/02/13 00:59:49;;;;;;;15.40;7.18;;;3.10;99.90;;;;;;5054872;28;20477;-61
2022/02/13 01:02:14;;;;;;;12.85;7.13;;;3.10;99.90;;;;;;5054468;28;20024;-59
2022/02/13 01:04:40;;;;;;;7.07;4.05;;;3.10;99.90;;;;;;5048465;28;20095;-57
2022/02/13 01:07:05;;;;;;;5.55;3.83;;;3.10;99.90;;;;;;5050741;28;20032;-58
2022/02/13 01:09:31;;;;;;;8.57;4.78;;;3.20;99.90;;;;;;5058101;28;20448;-59
2022/02/13 01:11:56;;;;;;;9.75;5.18;;;3.20;99.90;;;;;;5048869;28;20021;-55
2022/02/13 01:14:22;;;;;;;9.13;4.28;;;3.20;99.90;;;;;;5048706;28;20025;-57
2022/02/13 01:16:47;;;;;;;10.82;4.30;;;3.20;99.90;;;;;;5052522;28;20055;-57
2022/02/13 01:19:13;;;;;;;19.38;9.77;;;3.20;99.90;;;;;;5043794;28;20516;-58
2022/02/13 01:21:38;;;;;;;8.82;3.70;;;3.30;99.90;;;;;;5049104;28;20112;-57
2022/02/13 01:24:04;;;;;;;11.98;5.38;;;3.30;99.90;;;;;;5048958;28;20082;-58
2022/02/13 01:26:30;;;;;;;12.10;5.32;;;3.30;99.90;;;;;;5057805;28;20029;-56
2022/02/13 01:28:55;;;;;;;;;;;3.30;99.90;;;;;;5056725;28;20111;-57
2022/02/13 01:31:21;;;;;;;11.20;4.18;;;3.30;99.90;;;;;;5056052;28;20258;-59
2022/02/13 01:33:47;;;;;;;12.50;5.90;;;3.30;99.90;;;;;;5055582;28;20053;-54
2022/02/13 01:36:13;;;;;;;7.70;4.65;;;3.30;99.90;;;;;;5050906;28;20433;-64
2022/02/13 01:38:38;;;;;;;7.30;4.00;;;3.20;99.90;;;;;;5048845;28;20522;-55
2022/02/13 01:41:05;;;;;;;15.25;8.13;;;3.30;99.90;;;;;;5057030;28;20033;-61
2022/02/13 01:43:31;;;;;;;19.58;10.20;;;3.30;99.90;;;;;;5050037;28;20061;-57
2022/02/13 01:45:56;;;;;;;10.75;5.60;;;3.30;99.90;;;;;;5048542;28;20071;-59
2022/02/13 01:48:22;;;;;;;17.85;8.75;;;3.30;99.90;;;;;;5054067;28;20028;-58
2022/02/13 01:50:50;;;;;;;12.15;5.72;;;3.30;99.90;;;;;;5059141;28;20537;-59
2022/02/13 01:53:16;;;;;;;11.38;5.35;;;3.20;99.90;;;;;;5058161;28;20056;-59
2022/02/13 01:55:45;;;;;;;12.20;6.07;;;3.20;99.90;;;;;;5045212;28;20069;-55
2022/02/13 01:58:11;;;;;;;10.23;6.00;;;3.20;99.90;;;;;;5044663;28;20552;-56
2022/02/13 02:00:36;;;;;;;8.43;5.05;;;3.10;99.90;;;;;;5053404;28;20032;-58
2022/02/13 02:03:02;;;;;;;7.72;5.60;;;3.10;99.90;;;;;;5051348;28;20040;-58
2022/02/13 02:05:28;;;;;;;11.32;6.15;;;3.10;99.90;;;;;;5053585;28;20474;-58
2022/02/13 02:07:54;;;;;;;18.60;7.50;;;3.10;99.90;;;;;;5043175;28;20052;-53
2022/02/13 02:10:21;;;;;;;13.63;6.30;;;3.00;99.90;;;;;;5045454;28;20057;-58
2022/02/13 02:12:47;;;;;;;8.73;4.63;;;3.00;99.90;;;;;;5047381;28;20037;-60
2022/02/13 02:15:13;;;;;;;;;;;3.00;99.90;;;;;;5052080;28;20033;-57
2022/02/13 02:17:39;;;;;;;13.00;7.70;;;3.00;99.90;;;;;;5046884;28;20433;-58
2022/02/13 02:20:05;;;;;;;13.77;7.78;;;2.90;99.90;;;;;;5049064;28;20056;-59
2022/02/13 02:22:30;;;;;;;11.63;6.35;;;2.90;99.90;;;;;;5054915;28;20071;-55
2022/02/13 02:24:56;;;;;;;14.23;6.65;;;2.90;99.90;;;;;;5055992;28;20033;-55
2022/02/13 02:27:21;;;;;;;16.75;8.77;;;2.90;99.90;;;;;;5047533;28;20032;-55
2022/02/13 02:29:47;;;;;;;12.70;6.30;;;2.90;99.90;;;;;;5048973;28;20425;-59
2022/02/13 02:32:12;;;;;;;16.70;7.30;;;2.90;99.90;;;;;;5055024;28;20029;-58
2022/02/13 02:34:39;;;;;;;8.93;5.72;;;3.00;99.90;;;;;;5058243;28;20064;-60
2022/02/13 02:37:06;;;;;;;10.70;5.68;;;2.90;99.90;;;;;;5058878;28;20072;-58
2022/02/13 02:39:31;;;;;;;9.18;5.20;;;2.90;99.90;;;;;;5058805;28;20058;-59
2022/02/13 02:41:57;;;;;;;7.03;3.80;;;2.90;99.90;;;;;;5057870;28;20093;-56
2022/02/13 02:44:22;;;;;;;10.75;5.43;;;2.90;99.90;;;;;;5053872;28;20052;-58
2022/02/13 02:46:48;;;;;;;18.45;7.32;;;2.90;99.90;;;;;;5058553;28;20363;-57
2022/02/13 02:49:13;;;;;;;14.80;7.32;;;2.90;99.90;;;;;;5056034;28;20034;-54
2022/02/13 02:51:39;;;;;;;16.50;7.68;;;2.80;99.90;;;;;;5057300;28;20021;-60
2022/02/13 02:54:04;;;;;;;11.98;6.32;;;2.80;99.90;;;;;;5056891;28;20038;-57
2022/02/13 02:56:30;;;;;;;21.23;10.27;;;2.80;99.90;;;;;;5057065;28;20517;-54
2022/02/13 02:58:55;;;;;;;9.98;6.25;;;2.80;99.90;;;;;;5052401;28;20400;-58
2022/02/13 03:01:21;;;;;;;17.92;9.60;;;2.80;99.90;;;;;;5055921;28;20140;-53
2022/02/13 03:03:47;;;;;;;6.30;4.47;;;2.80;99.90;;;;;;5057108;28;20071;-55
2022/02/13 03:06:12;;;;;;;20.48;11.40;;;2.80;99.90;;;;;;5056708;28;20489;-58
2022/02/13 03:08:38;;;;;;;13.38;6.75;;;2.80;99.90;;;;;;5054800;28;20064;-55
2022/02/13 03:11:03;;;;;;;12.20;5.07;;;2.70;99.90;;;;;;5053112;28;20257;-57
2022/02/13 03:13:29;;;;;;;10.52;5.47;;;2.70;99.90;;;;;;5058159;28;20037;-57
2022/02/13 03:15:54;;;;;;;18.48;11.63;;;2.70;99.90;;;;;;5053501;28;20133;-58
2022/02/13 03:18:20;;;;;;;6.40;4.45;;;2.70;99.90;;;;;;5056005;28;20071;-55
2022/02/13 03:20:49;;;;;;;23.33;10.75;;;2.70;99.90;;;;;;5056113;28;20079;-54
2022/02/13 03:23:16;;;;;;;20.63;10.05;;;2.70;99.90;;;;;;5055991;28;20048;-54
2022/02/13 03:25:42;;;;;;;13.43;6.60;;;2.70;99.90;;;;;;5056806;28;20477;-57
2022/02/13 03:28:08;;;;;;;8.77;5.45;;;2.60;99.90;;;;;;5056624;28;20036;-58
2022/02/13 03:30:34;;;;;;;;;;;2.60;99.90;;;;;;5055282;28;20029;-55
2022/02/13 03:33:00;;;;;;;14.27;5.97;;;2.60;99.90;;;;;;5057668;28;19924;-58
2022/02/13 03:35:25;;;;;;;10.02;3.53;;;2.60;99.90;;;;;;5052493;28;20041;-56
2022/02/13 03:37:51;;;;;;;13.80;5.50;;;2.50;99.90;;;;;;5061009;28;20489;-52
2022/02/13 03:40:18;;;;;;;12.93;6.63;;;2.50;99.90;;;;;;5055994;28;20032;-55
2022/02/13 03:42:43;;;;;;;15.23;6.90;;;2.50;99.90;;;;;;5051606;28;20044;-54
2022/02/13 03:45:10;;;;;;;14.30;5.38;;;2.50;99.90;;;;;;5053368;28;20029;-53
2022/02/13 03:47:36;;;;;;;12.52;6.90;;;2.40;99.90;;;;;;5050920;28;20040;-58
2022/02/13 03:50:02;;;;;;;15.32;8.40;;;2.40;99.90;;;;;;5051601;28;20038;-60
2022/02/13 03:52:28;;;;;;;11.23;6.10;;;2.50;99.90;;;;;;5057756;28;20032;-57
2022/02/13 03:54:53;;;;;;;9.30;5.53;;;2.50;99.90;;;;;;5053896;28;20029;-54
2022/02/13 03:57:19;;;;;;;10.70;5.97;;;2.50;99.90;;;;;;5052493;28;20037;-57
2022/02/13 03:59:45;;;;;;;19.35;9.18;;;2.50;99.90;;;;;;5056107;28;20024;-58
2022/02/13 04:02:10;;;;;;;10.85;7.30;;;2.50;99.90;;;;;;5048268;28;20035;-57
2022/02/13 04:04:36;;;;;;;8.60;5.55;;;2.50;99.90;;;;;;5051902;28;20108;-59
2022/02/13 04:07:02;;;;;;;10.85;5.82;;;2.40;99.90;;;;;;5057304;28;20478;-54
2022/02/13 04:09:27;;;;;;;19.23;9.55;;;2.40;99.90;;;;;;5059513;28;20044;-58
2022/02/13 04:11:53;;;;;;;12.85;7.35;;;2.40;99.90;;;;;;5046542;28;20139;-55
2022/02/13 04:14:18;;;;;;;14.63;6.78;;;2.40;99.90;;;;;;5049271;28;20111;-58
2022/02/13 04:16:44;;;;;;;9.27;5.40;;;2.50;99.90;;;;;;5050335;28;20079;-61
2022/02/13 04:19:09;;;;;;;15.70;6.95;;;2.50;99.90;;;;;;5050267;28;20032;-60
2022/02/13 04:21:35;;;;;;;12.15;5.70;;;2.50;99.90;;;;;;5059406;28;20032;-60
2022/02/13 04:24:00;;;;;;;11.40;5.50;;;2.40;99.90;;;;;;5054600;28;20029;-58
2022/02/13 04:26:26;;;;;;;14.82;6.85;;;2.40;99.90;;;;;;5054210;28;20037;-58
2022/02/13 04:28:51;;;;;;;18.45;8.88;;;2.40;99.90;;;;;;5052434;28;20109;-58
2022/02/13 04:31:17;;;;;;;12.45;6.22;;;2.40;99.90;;;;;;5053410;28;20032;-57
2022/02/13 04:33:42;;;;;;;11.38;6.40;;;2.40;99.90;;;;;;5053762;28;20025;-56
2022/02/13 04:36:08;;;;;;;13.40;7.07;;;2.40;99.90;;;;;;5051234;28;20059;-55
2022/02/13 04:38:34;;;;;;;;;;;2.40;99.90;;;;;;5060903;28;20029;-58
2022/02/13 04:41:00;;;;;;;11.60;5.00;;;2.40;99.90;;;;;;5050836;28;19935;-54
2022/02/13 04:43:26;;;;;;;10.70;6.00;;;2.40;99.90;;;;;;5046636;28;20087;-58
2022/02/13 04:45:52;;;;;;;10.38;5.65;;;2.30;99.90;;;;;;5047972;28;20060;-60
2022/02/13 04:48:18;;;;;;;15.02;6.43;;;2.30;99.90;;;;;;5047907;28;20032;-60
2022/02/13 04:50:43;;;;;;;15.25;6.72;;;2.30;99.90;;;;;;5051773;28;20025;-56
2022/02/13 04:53:09;;;;;;;7.95;5.22;;;2.30;99.90;;;;;;5047002;28;20037;-54
2022/02/13 04:55:34;;;;;;;14.93;7.90;;;2.30;99.90;;;;;;5048102;28;20037;-60
2022/02/13 04:58:03;;;;;;;14.30;6.38;;;2.30;99.90;;;;;;5054944;28;20116;-60
2022/02/13 05:00:29;;;;;;;11.90;6.35;;;2.30;99.90;;;;;;5051590;28;20059;-57
2022/02/13 05:02:54;;;;;;;14.35;7.22;;;2.30;99.90;;;;;;5048201;28;20409;-55
2022/02/13 05:05:21;;;;;;;11.38;5.47;;;2.30;99.90;;;;;;5060580;28;20052;-56
2022/02/13 05:07:47;;;;;;;9.20;4.15;;;2.30;99.90;;;;;;5050681;28;20104;-56
2022/02/13 05:10:13;;;;;;;21.08;12.15;;;2.30;99.90;;;;;;5060913;22;20596;-56
2022/02/13 05:12:38;;;;;;;11.82;6.22;;;2.30;99.90;;;;;;5030249;28;20056;-55
2022/02/13 05:15:04;;;;;;;8.63;5.53;;;2.30;99.90;;;;;;5025530;28;20033;-53
2022/02/13 05:17:32;;;;;;;;;;;2.40;99.90;;;;;;5033341;28;20053;-55
2022/02/13 05:19:58;;;;;;;11.05;5.78;;;2.40;99.90;;;;;;5035356;28;19909;-56
2022/02/13 05:22:23;;;;;;;7.93;5.20;;;2.40;99.90;;;;;;5025958;28;20055;-55
2022/02/13 05:24:49;;;;;;;10.52;4.63;;;2.40;99.90;;;;;;5028939;28;20120;-59
2022/02/13 05:27:17;;;;;;;12.48;6.18;;;2.30;99.90;;;;;;5026301;28;20029;-53
2022/02/13 05:29:42;;;;;;;11.38;6.68;;;2.30;99.90;;;;;;5035146;28;20025;-56
2022/02/13 05:32:09;;;;;;;11.38;5.47;;;2.30;99.90;;;;;;5028825;28;20364;-57
2022/02/13 05:34:35;;;;;;;14.25;6.97;;;2.30;99.90;;;;;;5027579;28;20030;-57
2022/02/13 05:37:00;;;;;;;8.63;5.22;;;2.20;99.90;;;;;;5036892;28;20456;-58
2022/02/13 05:39:26;;;;;;;9.63;4.18;;;2.20;99.90;;;;;;5027909;28;20654;-59
2022/02/13 05:41:51;;;;;;;8.77;5.35;;;2.20;99.90;;;;;;5028067;28;20306;-59
2022/02/13 05:44:17;;;;;;;10.05;4.88;;;2.20;99.90;;;;;;5028513;28;20026;-58
2022/02/13 05:46:42;;;;;;;7.65;4.18;;;2.20;99.90;;;;;;5029562;28;20120;-59
2022/02/13 05:49:08;;;;;;;9.73;5.05;;;2.10;99.90;;;;;;5032456;28;20045;-56
2022/02/13 05:51:35;;;;;;;7.80;4.97;;;2.10;99.90;;;;;;5025022;28;20025;-57
2022/02/13 05:54:01;;;;;;;6.90;3.20;;;2.10;99.90;;;;;;5024657;28;20041;-56
2022/02/13 05:56:27;;;;;;;6.45;4.05;;;2.10;99.90;;;;;;5023383;28;20029;-55
2022/02/13 05:58:52;;;;;;;7.95;4.22;;;2.10;99.90;;;;;;5035905;28;20041;-58
2022/02/13 06:01:19;;;;;;;6.57;4.65;;;2.00;99.90;;;;;;5027874;28;20034;-57
2022/02/13 06:03:45;;;;;;;9.20;5.80;;;2.00;99.90;;;;;;5024545;28;20037;-57
2022/02/13 06:06:11;;;;;;;6.80;4.25;;;2.00;99.90;;;;;;5029004;28;20426;-58
2022/02/13 06:08:37;;;;;;;15.50;8.65;;;2.00;99.90;;;;;;5026379;28;20032;-59
2022/02/13 06:11:03;;;;;;;7.13;4.07;;;2.00;99.90;;;;;;5036513;28;20045;-56
2022/02/13 06:13:29;;;;;;;31.35;15.63;;;2.00;99.90;;;;;;5027435;28;20029;-59
2022/02/13 06:15:54;;;;;;;34.58;18.85;;;2.00;99.90;;;;;;5027920;28;20029;-58
2022/02/13 06:18:20;;;;;;;29.85;16.83;;;2.00;99.90;;;;;;5029084;28;20116;-56
2022/02/13 06:20:46;;;;;;;19.10;7.95;;;2.00;99.90;;;;;;5031196;28;20037;-57
2022/02/13 06:23:11;;;;;;;22.55;9.65;;;2.00;99.90;;;;;;5036657;28;20057;-56
2022/02/13 06:25:37;;;;;;;16.38;6.82;;;2.00;99.90;;;;;;5035583;28;20065;-59
2022/02/13 06:28:04;;;;;;;14.00;6.82;;;1.90;99.90;;;;;;5035468;28;20021;-58
2022/02/13 06:30:30;;;;;;;6.70;3.58;;;1.90;99.90;;;;;;5032984;28;20062;-57
2022/02/13 06:32:59;;;;;;;9.35;4.40;;;1.80;99.90;;;;;;5040376;28;20486;-58
2022/02/13 06:35:24;;;;;;;17.60;8.52;;;1.80;99.90;;;;;;5021024;28;20486;-56
2022/02/13 06:37:50;;;;;;;9.73;4.68;;;1.70;99.90;;;;;;5033065;28;20173;-56
2022/02/13 06:40:16;;;;;;;;;;;1.70;99.90;;;;;;5037812;28;20034;-55
2022/02/13 06:42:41;;;;;;;5.88;3.25;;;1.70;99.90;;;;;;5032759;28;19983;-59
2022/02/13 06:45:08;;;;;;;11.65;5.88;;;1.70;99.90;;;;;;5036877;28;20599;-56
2022/02/13 06:47:33;;;;;;;8.77;4.82;;;1.70;99.90;;;;;;5034361;28;20494;-56
2022/02/13 06:49:59;;;;;;;7.53;4.75;;;1.60;99.90;;;;;;5030858;28;20107;-57
2022/02/13 06:52:25;;;;;;;10.70;4.68;;;1.60;99.90;;;;;;5028554;28;20056;-59
2022/02/13 06:54:50;;;;;;;7.32;3.55;;;2.20;99.90;;;;;;5028258;28;20557;-58
2022/02/13 06:57:16;;;;;;;7.75;3.95;;;2.40;99.90;;;;;;5036588;28;20395;-54
2022/02/13 06:59:41;;;;;;;9.07;3.92;;;2.30;99.90;;;;;;5032981;28;20393;-56
2022/02/13 07:02:10;;;;;;;9.95;4.55;;;2.10;99.90;;;;;;5039187;28;20048;-55
2022/02/13 07:04:37;;;;;;;8.00;4.97;;;2.00;99.90;;;;;;5033604;28;20075;-53
2022/02/13 07:07:03;;;;;;;13.38;7.90;;;1.90;99.90;;;;;;5027304;28;20116;-56
2022/02/13 07:09:28;;;;;;;10.18;5.82;;;1.80;99.90;;;;;;5031179;28;20506;-56
2022/02/13 07:11:54;;;;;;;6.28;3.50;;;1.80;99.90;;;;;;5035185;28;20052;-54
2022/02/13 07:14:19;;;;;;;6.03;3.85;;;1.70;99.90;;;;;;5030224;28;20494;-56
2022/02/13 07:16:45;;;;;;;8.38;4.85;;;1.70;99.90;;;;;;5034092;28;20025;-55
2022/02/13 07:19:10;;;;;;;7.78;3.80;;;1.70;99.90;;;;;;5027082;28;20033;-54
2022/02/13 07:21:36;;;;;;;11.32;6.20;;;1.70;99.90;;;;;;5037317;28;20043;-56
2022/02/13 07:24:01;;;;;;;5.65;3.13;;;1.70;99.90;;;;;;5029097;28;20044;-53
2022/02/13 07:26:27;;;;;;;7.20;3.90;;;1.70;99.90;;;;;;5043051;28;20127;-56
2022/02/13 07:29:01;;;;;;;11.50;4.50;;;1.80;99.90;;;;;;5030463;28;20428;-57
2022/02/13 07:31:29;;;;;;;8.70;4.43;;;1.80;99.90;;;;;;5036366;28;20040;-53
2022/02/13 07:33:55;;;;;;;12.25;5.22;;;1.80;99.90;;;;;;5027670;28;20049;-58
2022/02/13 07:36:20;;;;;;;14.35;6.70;;;1.90;99.90;;;;;;5028158;28;20556;-54
2022/02/13 07:38:46;;;;;;;19.60;9.43;;;2.00;99.90;;;;;;5029247;28;20036;-56
2022/02/13 07:41:11;;;;;;;13.50;7.30;;;2.00;99.90;;;;;;5030556;28;20025;-54
2022/02/13 07:43:37;;;;;;;11.18;5.32;;;2.10;99.90;;;;;;5039468;28;20025;-57
2022/02/13 07:46:02;;;;;;;11.20;5.95;;;2.20;99.90;;;;;;5029569;28;20041;-57
2022/02/13 07:48:28;;;;;;;14.90;4.28;;;2.30;99.90;;;;;;5037963;28;20055;-55
2022/02/13 07:50:54;;;;;;;12.02;5.53;;;2.40;99.90;;;;;;5033043;28;20212;-53
2022/02/13 07:53:20;;;;;;;18.10;9.75;;;2.40;99.90;;;;;;5034532;28;20037;-57
2022/02/13 07:55:46;;;;;;;15.07;7.82;;;2.40;99.90;;;;;;5034150;28;20792;-55
2022/02/13 07:58:11;;;;;;;14.70;5.97;;;2.50;99.90;;;;;;5032097;28;20107;-56
2022/02/13 08:00:37;;;;;;;19.65;9.52;;;2.50;99.90;;;;;;5034999;28;20103;-54
2022/02/13 08:03:03;;;;;;;13.57;7.30;;;2.60;99.90;;;;;;5026980;28;20072;-58
2022/02/13 08:05:28;;;;;;;12.27;6.90;;;2.60;99.90;;;;;;5031537;28;20151;-57
2022/02/13 08:07:54;;;;;;;16.20;5.10;;;2.60;99.90;;;;;;5027303;28;20183;-57
2022/02/13 08:10:20;;;;;;;15.82;9.75;;;2.60;99.90;;;;;;5027952;28;20037;-57
2022/02/13 08:12:46;;;;;;;10.27;5.25;;;3.10;99.90;;;;;;5025882;28;20142;-54
2022/02/13 08:15:12;;;;;;;11.48;7.03;;;4.10;99.90;;;;;;5036326;28;20040;-53
2022/02/13 08:17:38;;;;;;;;;;;4.80;99.90;;;;;;5035620;28;20116;-57
2022/02/13 08:20:07;;;;;;;29.08;5.88;;;5.30;99.90;;;;;;5027474;28;20043;-57
2022/02/13 08:22:34;;;;;;;5.38;3.95;;;5.20;98.20;;;;;;5026751;28;20037;-55
2022/02/13 08:24:59;;;;;;;8.07;4.45;;;4.80;96.20;;;;;;5026653;28;20030;-56
2022/02/13 08:27:25;;;;;;;7.82;3.90;;;4.40;96.80;;;;;;5032691;28;20053;-57
2022/02/13 08:29:51;;;;;;;5.35;3.58;;;4.10;96.70;;;;;;5030946;28;20074;-56
2022/02/13 08:32:17;;;;;;;7.25;3.33;;;3.90;97.10;;;;;;5028078;28;20056;-54
2022/02/13 08:34:43;;;;;;;5.35;3.03;;;3.80;97.10;;;;;;5033009;28;20117;-54
2022/02/13 08:37:08;;;;;;;5.40;3.30;;;3.70;97.40;;;;;;5034088;28;20164;-54
2022/02/13 08:39:34;;;;;;;9.10;3.95;;;3.70;97.60;;;;;;5035282;28;20021;-57
2022/02/13 08:41:59;;;;;;;9.57;4.05;;;3.70;97.30;;;;;;5032016;28;20032;-55
2022/02/13 08:44:25;;;;;;;8.40;3.50;;;3.70;96.90;;;;;;5019789;28;20036;-51
2022/02/13 08:46:50;;;;;;;5.03;3.40;;;3.80;97.00;;;;;;5024329;28;20648;-56
2022/02/13 08:49:16;;;;;;;5.05;3.03;;;3.80;96.90;;;;;;5028493;28;20022;-53
2022/02/13 08:51:41;;;;;;;7.78;4.30;;;3.80;97.20;;;;;;5028678;28;20116;-55
2022/02/13 08:54:07;;;;;;;7.03;3.97;;;3.80;97.20;;;;;;5032913;28;20022;-54
2022/02/13 08:56:33;;;;;;;12.13;7.93;;;3.90;97.10;;;;;;5030851;28;20037;-56
2022/02/13 08:58:59;;;;;;;7.07;3.58;;;3.90;96.90;;;;;;5026725;28;20425;-54
2022/02/13 09:01:24;;;;;;;13.07;3.95;;;4.10;96.80;;;;;;5031732;28;20037;-54
2022/02/13 09:03:50;;;;;;;9.45;3.97;;;4.10;96.90;;;;;;5026203;28;20037;-55
2022/02/13 09:06:16;;;;;;;8.60;3.30;;;4.20;96.40;;;;;;5022789;28;20052;-56
2022/02/13 09:08:41;;;;;;;8.68;3.85;;;4.30;96.00;;;;;;5034129;28;20025;-52
2022/02/13 09:11:07;;;;;;;11.10;4.65;;;4.40;95.80;;;;;;5026104;28;20032;-53
2022/02/13 09:13:33;;;;;;;5.38;2.67;;;4.50;96.20;;;;;;5032967;28;20030;-53
2022/02/13 09:15:58;;;;;;;8.23;3.42;;;4.50;95.50;;;;;;5028492;28;20517;-54
2022/02/13 09:18:24;;;;;;;5.63;3.72;;;4.60;95.50;;;;;;5035255;28;20332;-56
2022/02/13 09:20:49;;;;;;;10.15;5.07;;;4.60;95.50;;;;;;5035923;28;20025;-55
2022/02/13 09:23:21;;;;;;;9.77;3.92;;;4.70;95.60;;;;;;5026477;28;20025;-55
2022/02/13 09:25:48;;;;;;;10.85;5.38;;;4.70;94.70;;;;;;5025062;28;20394;-54
2022/02/13 09:28:16;;;;;;;10.10;4.35;;;4.80;94.50;;;;;;5032136;28;20025;-52
2022/02/13 09:30:46;;;;;;;7.43;4.65;;;4.80;95.20;;;;;;5027314;28;20024;-58
2022/02/13 09:33:12;;;;;;;8.90;5.55;;;4.90;94.70;;;;;;5032759;28;20105;-54
2022/02/13 09:35:38;;;;;;;12.18;5.55;;;4.90;94.80;;;;;;5029201;28;20040;-51
2022/02/13 09:38:04;;;;;;;6.07;3.72;;;5.00;95.20;;;;;;5031852;28;20030;-57
2022/02/13 09:40:33;;;;;;;10.68;6.30;;;5.10;94.80;;;;;;5029188;28;20033;-57
2022/02/13 09:43:03;;;;;;;9.68;3.95;;;5.10;94.30;;;;;;5026709;28;20040;-52
2022/02/13 09:45:30;;;;;;;9.60;4.05;;;5.10;93.90;;;;;;5033207;28;20029;-52
2022/02/13 09:47:59;;;;;;;12.10;4.90;;;5.10;94.20;;;;;;5031233;28;20030;-55
2022/02/13 09:50:24;;;;;;;7.35;4.60;;;5.10;94.00;;;;;;5027634;28;20026;-55
2022/02/13 09:52:54;;;;;;;8.73;4.68;;;5.10;93.80;;;;;;5029517;28;20037;-56
2022/02/13 09:55:21;;;;;;;6.43;3.80;;;5.20;94.10;;;;;;5037908;28;20026;-56
2022/02/13 09:58:03;;;;;;;7.90;4.82;;;5.20;94.00;;;;;;5030727;28;20390;-57
2022/02/13 10:00:55;;;;;;;13.35;5.15;;;5.30;94.10;;;;;;5033707;28;20431;-56
2022/02/13 10:03:27;;;;;;;11.68;6.03;;;5.40;93.80;;;;;;5026063;28;20048;-57
2022/02/13 10:06:15;;;;;;;11.55;5.20;;;5.50;93.30;;;;;;5035895;28;20183;-55
2022/02/13 10:08:44;;;;;;;13.80;6.10;;;5.50;93.90;;;;;;5015289;28;20037;-57
2022/02/13 10:11:17;;;;;;;15.35;6.10;;;5.60;94.20;;;;;;5032285;28;20499;-57
2022/02/13 10:13:53;;;;;;;11.27;6.15;;;5.70;93.40;;;;;;5030513;28;20033;-55
2022/02/13 10:16:24;;;;;;;15.75;8.13;;;5.70;93.70;;;;;;5032974;28;20056;-52
2022/02/13 10:18:53;;;;;;;74.53;26.13;;;5.80;93.10;;;;;;5040835;28;20021;-56
2022/02/13 10:21:32;;;;;;;21.52;7.55;;;5.90;96.50;;;;;;5033299;28;20033;-59
2022/02/13 10:24:13;;;;;;;15.05;7.90;;;6.30;92.10;;;;;;5029950;28;20129;-58
2022/02/13 10:26:39;;;;;;;15.30;6.68;;;6.40;91.10;;;;;;5028535;28;20033;-55
2022/02/13 10:29:04;;;;;;;14.02;6.32;;;6.30;91.20;;;;;;5027350;28;20048;-57
2022/02/13 10:31:30;;;;;;;12.63;5.70;;;6.30;91.70;;;;;;5026996;28;20068;-54
2022/02/13 10:33:59;;;;;;;10.77;5.15;;;6.20;92.40;;;;;;5038062;28;20730;-53
2022/02/13 10:36:26;;;;;;;7.90;4.30;;;6.30;92.80;;;;;;5038293;28;20123;-55
2022/02/13 10:38:52;;;;;;;7.38;4.10;;;6.40;91.70;;;;;;5038442;28;20029;-55
2022/02/13 10:41:20;;;;;;;5.40;3.38;;;6.40;92.80;;;;;;5045623;28;20025;-55
2022/02/13 10:43:48;;;;;;;12.95;5.38;;;6.40;90.90;;;;;;5034814;28;20064;-54
2022/02/13 10:46:18;;;;;;;8.00;2.95;;;6.50;92.20;;;;;;5027591;28;20022;-62
2022/02/13 10:48:45;;;;;;;7.78;3.90;;;6.60;90.00;;;;;;5039438;28;21024;-54
2022/02/13 10:51:11;;;;;;;11.57;3.88;;;6.60;90.50;;;;;;5034267;28;20076;-57
2022/02/13 10:53:37;;;;;;;7.72;3.72;;;6.70;90.20;;;;;;5035306;28;20046;-59
2022/02/13 10:56:03;;;;;;;7.07;3.65;;;6.70;89.80;;;;;;5040515;28;20698;-52
2022/02/13 10:58:31;;;;;;;4.80;3.30;;;6.80;87.70;;;;;;5029973;28;20037;-55
2022/02/13 11:00:58;;;;;;;15.60;5.30;;;6.80;88.10;;;;;;5030996;28;20100;-56
2022/02/13 11:03:25;;;;;;;6.97;3.70;;;6.90;89.70;;;;;;5024827;28;20037;-58
2022/02/13 11:05:52;;;;;;;5.15;3.00;;;7.00;85.90;;;;;;5024692;28;20025;-55
2022/02/13 11:08:18;;;;;;;8.35;2.35;;;7.00;85.80;;;;;;5029548;28;20030;-57
2022/02/13 11:10:50;;;;;;;12.00;4.13;;;7.10;82.20;;;;;;5029204;28;20490;-57
2022/02/13 11:13:17;;;;;;;6.97;3.88;;;7.10;84.30;;;;;;5027152;28;20116;-58
2022/02/13 11:15:44;;;;;;;8.35;3.20;;;7.20;81.80;;;;;;5031244;28;20036;-58
2022/02/13 11:18:17;;;;;;;7.95;3.67;;;7.30;80.10;;;;;;5034056;28;20021;-57
2022/02/13 11:20:43;;;;;;;6.40;4.47;;;7.40;78.00;;;;;;5034453;28;20359;-57
2022/02/13 11:23:35;;;;;;;7.20;3.58;;;7.40;77.80;;;;;;5034838;28;20041;-57
2022/02/13 11:26:03;;;;;;;10.95;4.22;;;7.50;78.90;;;;;;5020804;28;20514;-57
2022/02/13 11:28:45;;;;;;;11.75;4.32;;;7.60;78.40;;;;;;5030079;28;20064;-56
2022/02/13 11:31:39;;;;;;;8.45;3.47;;;7.70;77.50;;;;;;5028282;28;20034;-57
2022/02/13 11:34:12;;;;;;;6.03;3.40;;;7.80;76.20;;;;;;5027955;28;20091;-57
2022/02/13 11:36:49;;;;;;;9.98;3.33;;;7.80;75.70;;;;;;5024942;28;20033;-57
2022/02/13 11:39:38;;;;;;;6.18;2.95;;;7.80;75.90;;;;;;5030490;28;20079;-57
2022/02/13 11:42:10;;;;;;;5.40;3.25;;;7.90;75.10;;;;;;5028010;28;20037;-58
2022/02/13 11:44:49;;;;;;;8.93;3.13;;;7.90;72.80;;;;;;5032518;28;20032;-57
2022/02/13 11:47:38;;;;;;;4.68;2.80;;;7.90;73.00;;;;;;5034803;28;20398;-56
2022/02/13 11:50:04;;;;;;;3.22;2.67;;;7.90;73.40;;;;;;5033676;28;20049;-55
2022/02/13 11:52:30;;;;;;;;;;;8.00;74.10;;;;;;5028311;28;20502;-56
2022/02/13 11:54:59;;;;;;;7.95;4.00;;;8.00;75.00;;;;;;5029225;28;19909;-58
2022/02/13 11:57:29;;;;;;;8.38;3.40;;;8.10;73.20;;;;;;5030019;28;20025;-57
2022/02/13 11:59:54;;;;;;;5.47;3.25;;;8.20;72.40;;;;;;5039026;28;20382;-57
2022/02/13 12:02:41;;;;;;;;;;;8.10;73.50;;;;;;5035799;28;20086;-55
2022/02/13 12:05:10;;;;;;;7.32;3.65;;;8.10;71.90;;;;;;5028622;28;20043;-56
2022/02/13 12:07:42;;;;;;;6.70;3.47;;;8.20;74.40;;;;;;5041628;28;20120;-58
2022/02/13 12:10:28;;;;;;;4.38;3.08;;;8.20;71.80;;;;;;5025759;28;21605;-57
2022/02/13 12:13:08;;;;;;;12.13;5.20;;;8.30;72.80;;;;;;5026085;28;20112;-56
2022/02/13 12:15:34;;;;;;;6.18;3.17;;;8.30;73.30;;;;;;5030817;28;20044;-58
2022/02/13 12:18:07;;;;;;;10.05;4.28;;;8.30;71.90;;;;;;5032239;28;20225;-57
2022/02/13 12:20:34;;;;;;;10.82;3.65;;;8.30;75.10;;;;;;5028682;28;20041;-57
2022/02/13 12:23:04;;;;;;;8.55;4.82;;;8.50;71.90;;;;;;5025245;28;20025;-57
2022/02/13 12:25:32;;;;;;;7.53;4.20;;;8.50;75.30;;;;;;5026747;28;20517;-57
2022/02/13 12:27:57;;;;;;;8.25;3.80;;;8.60;72.10;;;;;;5027800;28;20329;-56
2022/02/13 12:30:26;;;;;;;;;;;8.60;73.40;;;;;;5033077;28;20389;-57
2022/02/13 12:32:57;;;;;;;10.15;4.40;;;8.60;73.10;;;;;;5036262;28;19916;-56
2022/02/13 12:35:30;;;;;;;10.32;5.15;;;8.60;71.40;;;;;;5024604;28;20045;-57
2022/02/13 12:37:57;;;;;;;9.90;4.60;;;8.70;73.80;;;;;;5028099;28;20505;-56
2022/02/13 12:40:27;;;;;;;10.32;5.00;;;8.80;73.00;;;;;;5032121;28;20043;-56
2022/02/13 12:43:04;;;;;;;7.53;4.22;;;8.80;74.80;;;;;;5032600;28;20517;-58
2022/02/13 12:45:32;;;;;;;10.80;4.28;;;8.80;74.00;;;;;;5027829;28;20037;-58
2022/02/13 12:48:00;;;;;;;13.65;4.93;;;8.90;73.90;;;;;;5027252;28;20060;-55
2022/02/13 12:50:34;;;;;;;11.15;5.45;;;8.90;74.50;;;;;;5038210;28;20422;-55
2022/02/13 12:53:03;;;;;;;9.38;4.53;;;8.90;74.60;;;;;;5025491;28;20028;-58